Time;durP1;ratioP1;P1;durP2;ratioP2;P2;SDS_P1;SDS_P2;PMS_P1;PMS_P2;Temp;Humidity;BMP_temperature;BMP_pressure;BME280_temperature;BME280_humidity;BME280_pressure;Samples;Min_cycle;Max_cycle;Signal;HPM_P1;HPM_P2
2022/01/23 00:00:01;;;;;;;1.98;0.90;;;24.90;99.90;;;;;;5034541;28;20611;-82
2022/01/23 00:02:35;;;;;;;3.40;0.52;;;24.70;99.90;;;;;;5031531;28;20215;-82
2022/01/23 00:05:07;;;;;;;1.23;0.40;;;24.40;99.90;;;;;;5033605;28;20270;-84
2022/01/23 00:07:40;;;;;;;3.30;0.57;;;24.10;99.90;;;;;;5034447;28;20194;-83
2022/01/23 00:10:13;;;;;;;12.60;8.82;;;23.90;99.90;;;;;;5035007;28;20205;-83
2022/01/23 00:12:47;;;;;;;8.60;5.45;;;23.90;99.90;;;;;;5035412;28;20197;-82
2022/01/23 00:18:11;;;;;;;5.45;2.17;;;23.90;99.90;;;;;;5033244;28;20188;-82
2022/01/23 00:20:42;;;;;;;1.98;0.50;;;23.90;99.90;;;;;;5034277;28;20248;-84
2022/01/23 00:23:26;;;;;;;1.75;0.32;;;24.00;99.90;;;;;;5033968;28;20222;-83
2022/01/23 00:31:34;;;;;;;2.25;0.40;;;23.90;99.90;;;;;;5034109;28;20190;-83
2022/01/23 00:34:09;;;;;;;1.92;0.35;;;23.70;99.90;;;;;;5040751;28;20638;-81
2022/01/23 00:36:39;;;;;;;3.75;0.30;;;23.70;99.90;;;;;;5034444;28;20190;-86
2022/01/23 00:39:10;;;;;;;2.63;0.40;;;23.60;99.90;;;;;;5033985;28;20244;-82
2022/01/23 00:41:40;;;;;;;2.30;0.40;;;23.70;99.90;;;;;;5032133;28;20186;-84
2022/01/23 00:44:11;;;;;;;2.85;0.50;;;23.60;99.90;;;;;;5041320;28;20186;-82
2022/01/23 00:46:49;;;;;;;3.95;0.50;;;23.60;99.90;;;;;;5035295;28;20576;-83
2022/01/23 00:49:27;;;;;;;4.18;0.60;;;23.50;99.90;;;;;;5035419;28;20244;-82
2022/01/23 00:51:58;;;;;;;3.78;0.50;;;23.40;99.90;;;;;;5038046;28;20194;-80
2022/01/23 00:54:29;;;;;;;3.30;0.50;;;23.50;99.90;;;;;;5041080;28;20272;-80
2022/01/23 00:57:00;;;;;;;1.70;0.40;;;23.60;99.90;;;;;;5034047;28;20191;-81
2022/01/23 00:59:31;;;;;;;2.47;0.70;;;23.60;99.90;;;;;;5025287;28;20244;-87
2022/01/23 01:02:01;;;;;;;2.35;0.60;;;23.60;99.90;;;;;;5026076;28;20219;-81
2022/01/23 01:04:34;;;;;;;1.75;0.50;;;23.60;99.90;;;;;;5027561;28;20658;-81
2022/01/23 01:07:04;;;;;;;1.08;0.50;;;23.70;99.90;;;;;;5027134;28;20194;-81
2022/01/23 01:09:35;;;;;;;1.73;0.30;;;23.60;99.90;;;;;;5035539;28;20206;-83
2022/01/23 01:12:17;;;;;;;2.08;0.40;;;23.50;99.90;;;;;;5034522;28;20202;-82
2022/01/23 01:15:22;;;;;;;1.98;0.40;;;23.50;99.90;;;;;;5036982;28;20220;-82
2022/01/23 01:31:51;;;;;;;1.48;0.40;;;23.60;99.90;;;;;;5026751;28;20224;-82
2022/01/23 01:34:32;;;;;;;3.60;0.43;;;23.70;99.90;;;;;;5028615;28;20197;-82
2022/01/23 01:37:05;;;;;;;2.05;0.40;;;23.70;99.90;;;;;;5027042;28;20677;-82
2022/01/23 01:39:35;;;;;;;3.00;0.70;;;23.70;99.90;;;;;;5021028;28;20226;-82
2022/01/23 01:42:07;;;;;;;2.65;0.40;;;23.90;99.90;;;;;;5027165;28;20194;-81
2022/01/23 01:44:38;;;;;;;2.97;0.60;;;24.00;99.90;;;;;;5026185;28;20202;-80
2022/01/23 01:47:11;;;;;;;2.13;0.60;;;23.90;99.90;;;;;;5027853;28;20206;-80
2022/01/23 01:49:42;;;;;;;1.00;0.50;;;23.70;99.90;;;;;;5027083;28;20194;-80
2022/01/23 01:52:14;;;;;;;1.35;0.40;;;23.50;99.90;;;;;;5027271;28;20572;-80
2022/01/23 01:54:47;;;;;;;1.65;0.50;;;23.40;99.90;;;;;;5030213;28;20201;-81
2022/01/23 01:57:18;;;;;;;1.95;0.30;;;23.10;99.90;;;;;;5029779;28;20198;-80
2022/01/23 02:00:12;;;;;;;2.50;0.30;;;23.00;99.90;;;;;;5026668;28;20252;-81
2022/01/23 02:02:57;;;;;;;1.08;0.30;;;22.90;99.90;;;;;;5027437;28;20320;-81
2022/01/23 02:08:27;;;;;;;2.58;0.40;;;23.30;99.90;;;;;;5024970;28;20247;-80
2022/01/23 02:11:03;;;;;;;0.70;0.22;;;23.40;99.90;;;;;;5029972;28;20197;-80
2022/01/23 02:13:38;;;;;;;2.05;0.40;;;23.60;99.90;;;;;;5031212;28;20662;-81
2022/01/23 02:16:37;;;;;;;1.20;0.32;;;23.80;99.90;;;;;;5032303;28;20216;-80
2022/01/23 02:52:46;;;;;;;1.73;0.43;;;24.90;99.90;;;;;;5032223;28;20603;-83
2022/01/23 02:55:24;;;;;;;2.78;0.30;;;24.60;99.90;;;;;;5031914;28;20263;-82
2022/01/23 02:57:57;;;;;;;1.75;0.40;;;24.50;99.90;;;;;;5029923;28;20658;-82
2022/01/23 03:00:46;;;;;;;1.48;0.30;;;24.50;99.90;;;;;;5032259;28;20312;-82
2022/01/23 03:03:23;;;;;;;1.38;0.30;;;24.60;99.90;;;;;;5025413;28;20650;-81
2022/01/23 03:06:17;;;;;;;1.45;0.30;;;24.60;99.90;;;;;;5031018;28;20208;-82
2022/01/23 03:09:09;;;;;;;1.40;0.30;;;24.60;99.90;;;;;;5029938;28;20198;-82
2022/01/23 03:12:06;;;;;;;1.23;0.40;;;24.60;99.90;;;;;;5029667;28;20213;-83
2022/01/23 03:14:49;;;;;;;1.23;0.30;;;24.50;99.90;;;;;;5027894;28;20209;-82
2022/01/23 03:28:50;;;;;;;1.05;0.30;;;24.90;99.90;;;;;;5020833;28;20260;-81
2022/01/23 03:31:25;;;;;;;0.70;0.30;;;24.60;99.90;;;;;;5025113;28;20198;-82
2022/01/23 03:33:56;;;;;;;1.23;0.30;;;24.30;99.90;;;;;;5030829;28;20198;-83
2022/01/23 03:36:27;;;;;;;1.42;0.40;;;24.40;99.90;;;;;;5031678;28;20204;-82
2022/01/23 03:38:57;;;;;;;0.85;0.30;;;24.50;99.90;;;;;;5030699;28;20255;-83
2022/01/23 03:41:28;;;;;;;1.20;0.40;;;24.70;99.90;;;;;;5021565;28;20194;-82
2022/01/23 03:44:01;;;;;;;1.02;0.30;;;24.60;99.90;;;;;;5032267;28;20225;-81
2022/01/23 03:46:51;;;;;;;0.80;0.35;;;24.50;99.90;;;;;;5029702;28;20240;-83
2022/01/23 03:49:33;;;;;;;1.05;0.32;;;24.40;99.90;;;;;;5029415;28;20289;-81
2022/01/23 03:52:05;;;;;;;0.82;0.30;;;24.30;99.90;;;;;;5029482;28;20685;-82
2022/01/23 03:54:36;;;;;;;1.02;0.30;;;24.10;99.90;;;;;;5029170;28;20198;-83
2022/01/23 03:57:09;;;;;;;1.33;0.30;;;24.00;99.90;;;;;;5032258;28;20205;-81
2022/01/23 03:59:41;;;;;;;1.58;0.30;;;24.00;99.90;;;;;;5030904;28;20198;-81
2022/01/23 04:02:12;;;;;;;1.42;0.30;;;23.90;99.90;;;;;;5027962;28;20207;-82
2022/01/23 04:04:43;;;;;;;0.77;0.30;;;23.90;99.90;;;;;;5028417;28;20284;-81
2022/01/23 04:07:17;;;;;;;1.52;0.30;;;23.80;99.90;;;;;;5029658;28;20689;-82
2022/01/23 04:09:48;;;;;;;2.50;0.40;;;23.80;99.90;;;;;;5026689;28;20194;-82
2022/01/23 04:12:35;;;;;;;1.00;0.30;;;23.80;99.90;;;;;;5026951;28;20210;-81
2022/01/23 04:15:14;;;;;;;0.93;0.30;;;23.90;99.90;;;;;;5028469;28;20201;-83
2022/01/23 04:20:47;;;;;;;1.92;0.55;;;24.10;99.90;;;;;;5027579;28;20197;-82
2022/01/23 04:32:06;;;;;;;1.92;0.50;;;24.30;99.90;;;;;;5026754;28;20592;-80
2022/01/23 04:34:50;;;;;;;2.33;0.38;;;24.10;99.90;;;;;;5026902;28;20212;-81
2022/01/23 04:45:48;;;;;;;0.88;0.38;;;23.70;99.90;;;;;;5028260;28;20284;-83
2022/01/23 04:59:40;;;;;;;2.22;0.40;;;23.70;99.90;;;;;;5029329;28;20193;-83
2022/01/23 05:02:32;;;;;;;1.73;0.40;;;23.70;99.90;;;;;;5024976;28;20209;-81
2022/01/23 05:05:08;;;;;;;1.52;0.30;;;23.80;99.90;;;;;;5027198;28;20571;-81
2022/01/23 05:07:44;;;;;;;0.98;0.30;;;23.70;99.90;;;;;;5027326;28;20240;-82
2022/01/23 05:10:15;;;;;;;0.85;0.32;;;23.90;99.90;;;;;;5029097;28;20573;-81
2022/01/23 05:12:45;;;;;;;0.75;0.20;;;23.80;99.90;;;;;;5028554;28;20194;-82
2022/01/23 05:15:16;;;;;;;1.17;0.20;;;23.70;99.90;;;;;;5027848;28;20225;-83
2022/01/23 05:17:47;;;;;;;1.58;0.25;;;23.70;99.90;;;;;;5032870;28;20206;-82
2022/01/23 05:20:21;;;;;;;1.60;0.30;;;23.70;99.90;;;;;;5033241;28;20202;-82
2022/01/23 05:22:54;;;;;;;0.10;0.10;;;23.70;99.90;;;;;;5037222;28;20206;-82
2022/01/23 05:25:27;;;;;;;0.55;0.30;;;23.70;99.90;;;;;;5033156;28;20238;-82
2022/01/23 05:27:58;;;;;;;1.13;0.25;;;23.80;99.90;;;;;;5032285;28;20670;-81
2022/01/23 05:30:29;;;;;;;1.67;0.45;;;23.90;99.90;;;;;;5033114;28;20202;-82
2022/01/23 05:33:00;;;;;;;2.83;0.30;;;24.10;99.90;;;;;;5032810;28;20198;-83
2022/01/23 05:35:33;;;;;;;0.32;0.20;;;24.20;99.90;;;;;;5032539;28;20212;-81
2022/01/23 05:38:03;;;;;;;0.90;0.45;;;24.10;99.90;;;;;;5031712;28;20193;-80
2022/01/23 05:40:34;;;;;;;1.63;0.30;;;24.00;99.90;;;;;;5031754;28;20222;-82
2022/01/23 05:43:07;;;;;;;1.83;0.30;;;24.00;99.90;;;;;;5034646;28;20244;-80
2022/01/23 05:45:41;;;;;;;0.60;0.30;;;24.10;99.90;;;;;;5032729;28;20202;-83
2022/01/23 05:48:12;;;;;;;1.35;0.30;;;24.10;99.90;;;;;;5031818;28;20206;-82
2022/01/23 05:50:44;;;;;;;1.85;0.30;;;24.30;99.90;;;;;;5032889;28;20610;-81
2022/01/23 05:53:15;;;;;;;1.45;0.30;;;24.30;99.90;;;;;;5039782;28;20563;-82
2022/01/23 05:55:46;;;;;;;0.82;0.17;;;24.30;99.90;;;;;;5034924;28;20560;-83
2022/01/23 05:58:16;;;;;;;1.20;0.30;;;24.30;99.90;;;;;;5030635;28;20261;-82
2022/01/23 06:00:47;;;;;;;2.78;0.50;;;24.20;99.90;;;;;;5031372;28;20612;-82
2022/01/23 06:03:18;;;;;;;1.00;0.40;;;24.20;99.90;;;;;;5026085;28;20694;-82
2022/01/23 06:05:54;;;;;;;1.38;0.38;;;24.10;99.90;;;;;;5025839;28;20198;-82
2022/01/23 06:08:25;;;;;;;0.40;0.20;;;24.10;99.90;;;;;;5028422;28;20202;-82
2022/01/23 06:11:06;;;;;;;1.98;0.38;;;24.00;99.90;;;;;;5029820;28;20536;-81
2022/01/23 06:13:38;;;;;;;3.47;0.40;;;24.00;99.90;;;;;;5032957;28;20209;-83
2022/01/23 06:16:09;;;;;;;1.45;0.50;;;23.90;99.90;;;;;;5031510;28;20194;-84
2022/01/23 06:18:40;;;;;;;1.38;0.40;;;23.90;99.90;;;;;;5030395;28;20256;-82
2022/01/23 06:21:16;;;;;;;2.83;0.70;;;23.80;99.90;;;;;;5025370;28;20202;-82
2022/01/23 06:23:48;;;;;;;1.23;0.50;;;23.90;99.90;;;;;;5025141;28;20237;-83
2022/01/23 06:26:24;;;;;;;1.73;0.40;;;23.90;99.90;;;;;;5023658;28;20202;-81
2022/01/23 06:29:02;;;;;;;1.33;0.40;;;23.80;99.90;;;;;;5026020;28;20224;-81
2022/01/23 06:31:34;;;;;;;2.33;0.40;;;23.70;99.90;;;;;;5028285;28;20194;-82
2022/01/23 06:34:07;;;;;;;2.58;0.50;;;23.70;99.90;;;;;;5027197;28;20670;-81
2022/01/23 06:36:41;;;;;;;3.33;0.60;;;23.80;99.90;;;;;;5027552;28;20206;-83
2022/01/23 06:39:14;;;;;;;1.95;0.30;;;23.70;99.90;;;;;;5022803;28;20229;-82
2022/01/23 06:41:45;;;;;;;1.33;0.38;;;23.80;99.90;;;;;;5025678;28;20602;-82
2022/01/23 06:44:15;;;;;;;2.38;0.55;;;23.70;99.90;;;;;;5025849;28;20225;-82
2022/01/23 06:46:47;;;;;;;1.90;0.40;;;23.70;99.90;;;;;;5024537;28;20252;-84
2022/01/23 06:49:18;;;;;;;2.47;0.40;;;23.70;99.90;;;;;;5025542;28;20218;-83
2022/01/23 06:51:51;;;;;;;1.77;0.30;;;23.60;99.90;;;;;;5027521;28;20204;-83
2022/01/23 06:54:22;;;;;;;2.40;0.40;;;23.60;99.90;;;;;;5024903;28;20222;-84
2022/01/23 06:56:56;;;;;;;1.15;0.30;;;23.60;99.90;;;;;;5030877;28;20194;-83
2022/01/23 06:59:26;;;;;;;2.15;0.45;;;23.50;99.90;;;;;;5023034;28;20259;-85
2022/01/23 07:01:59;;;;;;;1.75;0.30;;;23.40;99.90;;;;;;5024062;28;20268;-82
2022/01/23 07:04:30;;;;;;;1.38;0.40;;;23.40;99.90;;;;;;5027876;28;20226;-83
2022/01/23 07:07:03;;;;;;;2.15;0.50;;;23.40;99.90;;;;;;5026777;28;20201;-80
2022/01/23 07:09:33;;;;;;;2.58;0.75;;;23.40;99.90;;;;;;5027039;28;20201;-81
2022/01/23 07:12:04;;;;;;;1.35;0.40;;;23.30;99.90;;;;;;5026161;28;20201;-84
2022/01/23 07:14:37;;;;;;;2.05;0.52;;;23.20;99.90;;;;;;5025696;28;20214;-83
2022/01/23 07:17:11;;;;;;;1.65;0.60;;;23.20;99.90;;;;;;5026773;28;20194;-84
2022/01/23 07:19:41;;;;;;;2.90;0.50;;;23.20;99.90;;;;;;5030264;28;20204;-84
2022/01/23 07:22:14;;;;;;;0.90;0.30;;;23.10;99.90;;;;;;5032803;28;20198;-84
2022/01/23 07:24:44;;;;;;;2.30;0.50;;;23.10;99.90;;;;;;5031672;28;20248;-84
2022/01/23 07:27:18;;;;;;;1.25;0.38;;;23.00;99.90;;;;;;5031724;28;20229;-80
2022/01/23 07:29:50;;;;;;;2.53;0.40;;;22.90;99.90;;;;;;5030426;28;20635;-83
2022/01/23 07:32:21;;;;;;;1.83;0.52;;;22.90;99.90;;;;;;5028670;28;20206;-79
2022/01/23 07:34:51;;;;;;;1.13;0.40;;;22.80;99.90;;;;;;5027292;28;20202;-80
2022/01/23 07:37:24;;;;;;;1.92;0.43;;;22.80;99.90;;;;;;5025468;28;20252;-82
2022/01/23 07:39:55;;;;;;;0.90;0.50;;;22.80;99.90;;;;;;5028225;28;20226;-81
2022/01/23 07:42:25;;;;;;;1.75;0.47;;;22.80;99.90;;;;;;5028553;28;20201;-79
2022/01/23 07:44:57;;;;;;;3.08;0.75;;;22.70;99.90;;;;;;5028773;28;20213;-80
2022/01/23 07:47:28;;;;;;;1.25;0.60;;;22.70;99.90;;;;;;5026824;28;20212;-81
2022/01/23 07:50:00;;;;;;;0.73;0.60;;;22.70;99.90;;;;;;5029214;28;20249;-80
2022/01/23 07:52:35;;;;;;;2.30;0.50;;;22.70;99.90;;;;;;5030368;28;20198;-79
2022/01/23 07:55:08;;;;;;;1.75;0.50;;;22.60;99.90;;;;;;5027041;28;20197;-79
2022/01/23 07:57:40;;;;;;;1.30;0.50;;;22.60;99.90;;;;;;5028656;28;21595;-83
2022/01/23 08:00:13;;;;;;;1.33;0.50;;;22.60;99.90;;;;;;5028643;28;20213;-87
2022/01/23 08:02:44;;;;;;;3.35;0.50;;;22.50;99.90;;;;;;5027535;28;20212;-86
2022/01/23 08:05:20;;;;;;;1.73;0.52;;;22.50;99.90;;;;;;5028239;28;20226;-84
2022/01/23 08:07:53;;;;;;;1.73;0.50;;;22.50;99.90;;;;;;5029133;28;20202;-82
2022/01/23 08:10:23;;;;;;;1.98;0.60;;;22.50;99.90;;;;;;5026828;28;20296;-84
2022/01/23 08:12:54;;;;;;;3.10;0.80;;;22.50;99.90;;;;;;5028366;28;20198;-87
2022/01/23 08:15:25;;;;;;;2.58;0.60;;;22.60;99.90;;;;;;5028226;28;20208;-85
2022/01/23 08:18:05;;;;;;;2.25;0.50;;;22.60;99.90;;;;;;5028409;28;20670;-81
2022/01/23 08:20:36;;;;;;;1.58;0.47;;;22.60;99.90;;;;;;5027765;28;20204;-84
2022/01/23 08:23:09;;;;;;;2.67;0.40;;;22.60;99.90;;;;;;5028271;28;20194;-87
2022/01/23 08:25:39;;;;;;;1.08;0.65;;;22.50;99.90;;;;;;5029300;28;20241;-86
2022/01/23 08:28:10;;;;;;;1.70;0.60;;;22.50;99.90;;;;;;5027067;28;20202;-84
2022/01/23 08:30:41;;;;;;;1.45;0.60;;;22.40;99.90;;;;;;5027950;28;20210;-88
2022/01/23 08:33:11;;;;;;;2.30;0.50;;;22.40;99.90;;;;;;5027647;28;20583;-82
2022/01/23 08:35:44;;;;;;;2.17;0.60;;;22.40;99.90;;;;;;5026225;28;20211;-81
2022/01/23 08:38:17;;;;;;;2.60;0.60;;;22.30;99.90;;;;;;5025158;28;20258;-78
2022/01/23 08:41:49;;;;;;;2.92;0.80;;;22.10;99.90;;;;;;5026803;28;20693;-79
2022/01/23 08:43:51;;;;;;;3.88;0.80;;;22.00;99.90;;;;;;5025205;28;20204;-81
2022/01/23 08:46:22;;;;;;;2.50;0.60;;;22.00;99.90;;;;;;5028678;28;20769;-86
2022/01/23 08:48:53;;;;;;;2.38;0.77;;;21.90;99.90;;;;;;5027850;28;20205;-87
2022/01/23 08:51:24;;;;;;;2.60;0.75;;;21.80;99.90;;;;;;5030810;28;20231;-85
2022/01/23 08:53:58;;;;;;;3.45;0.63;;;21.70;99.90;;;;;;5026923;28;20605;-86
2022/01/23 08:56:29;;;;;;;2.85;0.60;;;21.60;99.90;;;;;;5028016;28;20259;-84
2022/01/23 08:59:00;;;;;;;2.50;0.80;;;21.60;99.90;;;;;;5025777;28;21215;-85
2022/01/23 09:01:34;;;;;;;1.90;0.70;;;21.60;99.90;;;;;;5024241;28;20596;-86
2022/01/23 09:04:05;;;;;;;1.80;0.60;;;21.60;99.90;;;;;;5024729;28;20197;-85
2022/01/23 09:06:38;;;;;;;2.97;0.80;;;21.60;99.90;;;;;;5031019;28;20225;-86
2022/01/23 09:09:15;;;;;;;3.40;0.70;;;21.60;99.90;;;;;;5032183;28;20666;-86
2022/01/23 09:11:57;;;;;;;3.03;0.80;;;21.60;99.90;;;;;;5027718;28;20202;-86
2022/01/23 09:14:28;;;;;;;3.17;0.95;;;21.50;99.90;;;;;;5026874;28;20659;-87
2022/01/23 09:16:59;;;;;;;2.63;0.70;;;21.50;99.90;;;;;;5026572;28;20209;-86
2022/01/23 09:19:31;;;;;;;2.83;0.75;;;21.50;99.90;;;;;;5027594;28;20198;-81
2022/01/23 09:22:03;;;;;;;4.10;0.88;;;21.40;99.90;;;;;;5026598;28;20210;-79
2022/01/23 09:24:35;;;;;;;0.85;0.57;;;21.50;99.90;;;;;;5027150;28;20327;-81
2022/01/23 09:27:08;;;;;;;1.95;0.60;;;21.50;99.90;;;;;;5028108;28;20217;-81
2022/01/23 09:29:42;;;;;;;1.88;0.60;;;21.40;99.90;;;;;;5026081;28;20190;-83
2022/01/23 09:32:15;;;;;;;1.90;0.52;;;21.40;99.90;;;;;;5032111;28;20209;-84
2022/01/23 09:34:48;;;;;;;1.73;0.50;;;21.40;99.90;;;;;;5032126;28;20678;-80
2022/01/23 09:37:20;;;;;;;1.77;0.68;;;21.40;99.90;;;;;;5023998;28;20248;-79
2022/01/23 09:39:53;;;;;;;1.65;0.55;;;21.30;99.90;;;;;;5025989;28;20221;-79
2022/01/23 09:42:26;;;;;;;2.35;0.40;;;21.40;99.90;;;;;;5026858;28;20207;-79
2022/01/23 09:44:59;;;;;;;2.63;0.50;;;21.30;99.90;;;;;;5026514;28;20214;-79
2022/01/23 09:47:30;;;;;;;0.85;0.40;;;21.30;99.90;;;;;;5026361;28;20748;-81
2022/01/23 09:50:03;;;;;;;2.25;0.80;;;21.30;99.90;;;;;;5027802;28;20195;-81
2022/01/23 09:52:36;;;;;;;2.22;0.75;;;21.30;99.90;;;;;;5028095;28;20611;-80
2022/01/23 09:55:11;;;;;;;1.77;0.60;;;21.30;99.90;;;;;;5026410;28;20195;-81
2022/01/23 09:57:44;;;;;;;1.95;0.60;;;21.20;99.90;;;;;;5026673;28;20287;-79
2022/01/23 10:00:16;;;;;;;0.85;0.50;;;21.20;99.90;;;;;;5026443;28;20198;-80
2022/01/23 10:02:49;;;;;;;2.53;0.60;;;21.20;99.90;;;;;;5029446;28;20213;-82
2022/01/23 10:05:22;;;;;;;1.05;0.40;;;21.20;99.90;;;;;;5025695;28;20228;-81
2022/01/23 10:07:54;;;;;;;0.47;0.30;;;21.30;99.90;;;;;;5026462;28;20252;-81
2022/01/23 10:10:30;;;;;;;0.93;0.30;;;21.20;99.90;;;;;;5027511;28;20701;-79
2022/01/23 10:13:01;;;;;;;1.23;0.60;;;21.20;99.90;;;;;;5029808;28;20198;-80
2022/01/23 10:15:33;;;;;;;2.63;0.50;;;21.20;99.90;;;;;;5026817;28;20682;-82
2022/01/23 10:18:10;;;;;;;1.67;0.60;;;21.20;99.90;;;;;;5024334;28;20190;-85
2022/01/23 10:20:41;;;;;;;1.05;0.50;;;21.20;99.90;;;;;;5025755;28;20243;-85
2022/01/23 10:23:13;;;;;;;1.45;0.50;;;21.20;99.90;;;;;;5025794;28;20202;-83
2022/01/23 10:25:48;;;;;;;2.05;0.60;;;21.20;99.90;;;;;;5027993;28;20692;-84
2022/01/23 10:28:21;;;;;;;2.42;0.50;;;21.20;99.90;;;;;;5023333;28;20201;-84
2022/01/23 10:30:55;;;;;;;2.30;0.57;;;21.20;99.90;;;;;;5026312;28;20198;-85
2022/01/23 10:33:26;;;;;;;1.73;0.60;;;21.00;99.90;;;;;;5025421;28;20225;-80
2022/01/23 10:36:06;;;;;;;0.65;0.45;;;20.90;99.90;;;;;;5024298;28;20884;-81
2022/01/23 10:38:51;;;;;;;1.10;0.30;;;20.90;99.90;;;;;;5016332;28;20225;-80
2022/01/23 10:41:44;;;;;;;1.35;0.40;;;20.80;99.90;;;;;;5022397;28;20259;-80
2022/01/23 10:49:58;;;;;;;0.77;0.30;;;20.70;99.90;;;;;;5028642;28;20276;-85
2022/01/23 10:52:32;;;;;;;0.40;0.40;;;20.70;99.90;;;;;;5027317;28;20195;-80
2022/01/23 10:55:03;;;;;;;0.82;0.40;;;20.60;99.90;;;;;;5027986;28;20221;-82
2022/01/23 10:57:45;;;;;;;2.15;0.60;;;20.60;99.90;;;;;;5023388;28;20206;-82
2022/01/23 11:00:27;;;;;;;1.02;0.40;;;20.50;99.90;;;;;;5028199;28;20207;-86
2022/01/23 11:02:58;;;;;;;0.93;0.43;;;20.50;99.90;;;;;;5031795;28;20728;-89
2022/01/23 11:05:38;;;;;;;2.13;0.55;;;20.40;99.90;;;;;;5028527;28;20210;-88
2022/01/23 11:08:23;;;;;;;0.77;0.50;;;20.40;99.90;;;;;;5030161;28;20780;-90
2022/01/23 11:10:57;;;;;;;1.55;0.50;;;20.40;99.90;;;;;;5029993;28;20566;-80
2022/01/23 11:19:23;;;;;;;2.40;0.50;;;20.30;99.90;;;;;;5030337;28;20259;-78
2022/01/23 11:21:55;;;;;;;1.52;0.50;;;20.30;99.90;;;;;;5030765;28;20209;-78
2022/01/23 11:24:36;;;;;;;1.00;0.50;;;20.40;99.90;;;;;;5029566;28;20226;-78
2022/01/23 11:27:08;;;;;;;0.88;0.40;;;20.40;99.90;;;;;;5032770;28;20198;-81
2022/01/23 11:29:54;;;;;;;0.80;0.50;;;20.40;99.90;;;;;;5033944;28;20202;-81
2022/01/23 11:32:28;;;;;;;1.40;0.47;;;20.40;99.90;;;;;;5032720;28;20281;-81
2022/01/23 11:35:06;;;;;;;1.55;0.50;;;20.40;99.90;;;;;;5029002;28;20235;-79
2022/01/23 11:37:39;;;;;;;2.63;0.60;;;20.40;99.90;;;;;;5030018;28;20218;-81
2022/01/23 11:40:27;;;;;;;1.48;0.60;;;20.40;99.90;;;;;;5029319;28;20194;-79
2022/01/23 11:54:12;;;;;;;1.55;0.50;;;20.40;99.90;;;;;;5019882;28;20410;-78
2022/01/23 11:56:48;;;;;;;1.65;0.43;;;20.50;99.90;;;;;;5029357;28;20211;-79
2022/01/23 11:59:23;;;;;;;1.75;0.30;;;20.40;99.90;;;;;;5027779;28;20685;-79
2022/01/23 12:02:32;;;;;;;2.80;0.38;;;20.40;99.90;;;;;;5027448;28;20264;-80
2022/01/23 12:05:37;;;;;;;1.95;0.40;;;20.40;99.90;;;;;;5027700;28;20219;-79
2022/01/23 12:08:38;;;;;;;2.78;0.52;;;20.40;99.90;;;;;;5028231;28;20249;-81
2022/01/23 12:11:34;;;;;;;1.48;0.45;;;20.30;99.90;;;;;;5028399;28;20202;-79
2022/01/23 12:17:55;;;;;;;1.00;0.30;;;20.30;99.90;;;;;;5025701;28;20201;-79
2022/01/23 12:20:36;;;;;;;0.52;0.20;;;20.30;99.90;;;;;;5030706;28;20201;-79
2022/01/23 12:23:07;;;;;;;0.20;0.20;;;20.30;99.90;;;;;;5027284;28;20209;-78
2022/01/23 12:25:45;;;;;;;0.50;0.30;;;20.30;99.90;;;;;;5030818;28;20234;-80
2022/01/23 12:28:28;;;;;;;1.02;0.30;;;20.40;99.90;;;;;;5027387;28;20209;-78
2022/01/23 12:31:00;;;;;;;1.85;0.40;;;20.40;99.90;;;;;;5028536;28;20804;-82
2022/01/23 12:33:49;;;;;;;1.77;0.50;;;20.40;99.90;;;;;;5027780;28;20662;-87
2022/01/23 12:36:28;;;;;;;1.08;0.30;;;20.40;99.90;;;;;;5025043;28;20240;-87
2022/01/23 12:39:00;;;;;;;0.85;0.30;;;20.40;99.90;;;;;;5029427;28;20197;-84
2022/01/23 12:41:33;;;;;;;0.80;0.40;;;20.40;99.90;;;;;;5026852;28;20218;-78
2022/01/23 12:44:07;;;;;;;1.20;0.45;;;20.40;99.90;;;;;;5027459;28;20202;-87
2022/01/23 12:46:40;;;;;;;1.40;0.30;;;20.40;99.90;;;;;;5026566;28;20623;-87
2022/01/23 12:49:30;;;;;;;1.05;0.40;;;20.40;99.90;;;;;;5027982;28;20209;-87
2022/01/23 12:52:21;;;;;;;1.25;0.40;;;20.40;99.90;;;;;;5028621;28;20279;-86
2022/01/23 12:55:00;;;;;;;0.73;0.32;;;20.40;99.90;;;;;;5027220;28;20202;-86
2022/01/23 12:57:36;;;;;;;1.10;0.50;;;20.40;99.90;;;;;;5027980;28;20198;-86
2022/01/23 13:00:12;;;;;;;2.28;0.50;;;20.50;99.90;;;;;;5027944;28;20266;-79
2022/01/23 13:02:44;;;;;;;2.42;0.50;;;20.50;99.90;;;;;;5027180;28;20564;-79
2022/01/23 13:05:17;;;;;;;1.00;0.40;;;20.50;99.90;;;;;;5027537;28;20289;-78
2022/01/23 13:08:05;;;;;;;1.55;0.35;;;20.50;99.90;;;;;;5028585;28;20202;-78
2022/01/23 13:10:55;;;;;;;1.92;0.55;;;20.60;99.90;;;;;;5026021;28;20240;-80
2022/01/23 13:13:36;;;;;;;0.73;0.30;;;20.60;99.90;;;;;;5026723;28;20533;-78
2022/01/23 13:16:26;;;;;;;1.83;0.40;;;20.60;99.90;;;;;;5027108;28;20226;-78
2022/01/23 13:28:14;;;;;;;0.85;0.38;;;20.60;99.90;;;;;;5031848;28;20214;-78
2022/01/23 13:30:35;;;;;;;1.42;0.40;;;20.70;99.90;;;;;;5026440;28;20292;-78
2022/01/23 13:33:11;;;;;;;1.25;0.50;;;20.70;99.90;;;;;;5028220;28;20209;-79
2022/01/23 13:35:43;;;;;;;1.00;0.43;;;20.70;99.90;;;;;;5027250;28;20654;-79
2022/01/23 13:38:23;;;;;;;2.00;0.60;;;20.70;99.90;;;;;;5025917;28;20245;-79
2022/01/23 13:40:59;;;;;;;1.70;0.40;;;20.60;99.90;;;;;;5027089;28;20202;-79
2022/01/23 13:58:02;;;;;;;2.70;0.68;;;20.60;99.90;;;;;;5025857;28;20202;-79
2022/01/23 14:00:33;;;;;;;1.65;0.55;;;20.60;99.90;;;;;;5025833;28;20210;-79
2022/01/23 14:03:05;;;;;;;3.10;0.80;;;20.60;99.90;;;;;;5027423;28;20202;-79
2022/01/23 14:05:36;;;;;;;3.63;0.70;;;20.60;99.90;;;;;;5026446;28;20218;-79
2022/01/23 14:08:08;;;;;;;1.30;0.57;;;20.60;99.90;;;;;;5029069;28;20197;-79
2022/01/23 14:10:41;;;;;;;1.98;0.60;;;20.50;99.90;;;;;;5027646;28;20228;-79
2022/01/23 14:13:15;;;;;;;2.70;0.60;;;20.50;99.90;;;;;;5028108;28;20209;-79
2022/01/23 14:15:48;;;;;;;3.45;0.82;;;20.50;99.90;;;;;;5026104;28;20576;-79
2022/01/23 14:18:23;;;;;;;1.73;0.63;;;20.50;99.90;;;;;;5026469;28;20309;-78
2022/01/23 14:21:06;;;;;;;1.98;0.60;;;20.50;99.90;;;;;;5026490;28;20259;-79
2022/01/23 14:23:37;;;;;;;1.13;0.55;;;20.50;99.90;;;;;;5026208;28;20225;-79
2022/01/23 14:26:13;;;;;;;0.70;0.60;;;20.50;99.90;;;;;;5024845;28;20221;-78
2022/01/23 14:28:46;;;;;;;2.10;0.70;;;20.50;99.90;;;;;;5027285;28;20256;-78
2022/01/23 14:31:20;;;;;;;1.75;0.63;;;20.50;99.90;;;;;;5024981;28;20557;-80
2022/01/23 14:33:56;;;;;;;1.98;0.68;;;20.40;99.90;;;;;;5028031;28;20194;-78
2022/01/23 14:36:28;;;;;;;2.45;0.60;;;20.50;99.90;;;;;;5024510;28;20225;-79
2022/01/23 14:39:00;;;;;;;2.78;0.70;;;20.50;99.90;;;;;;5027974;28;20209;-86
2022/01/23 14:41:37;;;;;;;0.82;0.50;;;20.50;99.90;;;;;;5029158;28;20560;-80
2022/01/23 14:44:18;;;;;;;2.05;0.63;;;20.50;99.90;;;;;;5025299;28;20654;-83
2022/01/23 14:46:50;;;;;;;1.55;0.63;;;20.50;99.90;;;;;;5025363;28;20222;-81
2022/01/23 14:49:25;;;;;;;1.23;0.40;;;20.40;99.90;;;;;;5027503;28;20206;-85
2022/01/23 14:51:56;;;;;;;1.20;0.40;;;20.40;99.90;;;;;;5025807;28;20276;-80
2022/01/23 14:54:29;;;;;;;1.35;0.57;;;20.40;99.90;;;;;;5026550;28;20201;-83
2022/01/23 14:57:04;;;;;;;3.80;0.70;;;20.40;99.90;;;;;;5024202;28;20204;-80
2022/01/23 14:59:38;;;;;;;2.08;0.57;;;20.40;99.90;;;;;;5027480;28;20288;-79
2022/01/23 15:02:10;;;;;;;1.67;0.68;;;20.40;99.90;;;;;;5025836;28;20238;-84
2022/01/23 15:04:45;;;;;;;1.92;0.45;;;20.30;99.90;;;;;;5026081;28;20669;-82
2022/01/23 15:07:17;;;;;;;1.73;0.65;;;20.40;99.90;;;;;;5025532;28;20771;-84
2022/01/23 15:09:50;;;;;;;1.10;0.50;;;20.40;99.90;;;;;;5013648;28;20613;-85
2022/01/23 15:12:22;;;;;;;0.93;0.47;;;20.40;99.90;;;;;;5015152;28;20191;-78
2022/01/23 15:14:53;;;;;;;1.63;0.50;;;20.40;99.90;;;;;;5020703;28;20651;-79
2022/01/23 15:17:25;;;;;;;1.48;0.65;;;20.40;99.90;;;;;;5030665;28;20204;-82
2022/01/23 15:19:56;;;;;;;1.20;0.40;;;20.40;99.90;;;;;;5021340;28;20197;-82
2022/01/23 15:22:27;;;;;;;1.55;0.60;;;20.30;99.90;;;;;;5024927;28;20663;-80
2022/01/23 15:24:58;;;;;;;1.92;0.55;;;20.30;99.90;;;;;;5028723;28;20241;-83
2022/01/23 15:27:31;;;;;;;0.95;0.50;;;20.30;99.90;;;;;;5026849;28;20279;-80
2022/01/23 15:30:01;;;;;;;3.70;1.00;;;20.20;99.90;;;;;;5026371;28;20194;-84
2022/01/23 15:32:32;;;;;;;1.40;0.50;;;20.20;99.90;;;;;;5025997;28;20212;-79
2022/01/23 15:35:03;;;;;;;1.10;0.50;;;20.20;99.90;;;;;;5027327;28;20702;-84
2022/01/23 15:37:34;;;;;;;2.47;0.65;;;20.20;99.90;;;;;;5025698;28;20199;-80
2022/01/23 15:40:05;;;;;;;1.33;0.50;;;20.30;99.90;;;;;;5026859;28;20740;-80
2022/01/23 15:42:38;;;;;;;1.08;0.50;;;20.30;99.90;;;;;;5025526;28;20206;-79
2022/01/23 15:45:10;;;;;;;1.83;0.50;;;20.20;99.90;;;;;;5024434;28;20194;-80
2022/01/23 15:47:41;;;;;;;3.42;0.57;;;20.20;99.90;;;;;;5027625;28;20218;-83
2022/01/23 15:50:14;;;;;;;1.17;0.40;;;20.20;99.90;;;;;;5028687;28;20285;-81
2022/01/23 15:52:45;;;;;;;1.45;0.50;;;20.20;99.90;;;;;;5029749;28;20210;-79
2022/01/23 15:55:16;;;;;;;1.80;0.50;;;20.20;99.90;;;;;;5028246;28;20206;-80
2022/01/23 15:57:50;;;;;;;5.95;0.50;;;20.20;99.90;;;;;;5031338;28;20357;-79